sensor_id;sensor_type;location;lat;lon;timestamp;P1;durP1;ratioP1;P2;durP2;ratioP2
69989;SDS011;57331;52.054;5.294;2022-10-23T00:01:14;18.40;;;7.25;;
69989;SDS011;57331;52.054;5.294;2022-10-23T00:03:43;18.08;;;8.27;;
69989;SDS011;57331;52.054;5.294;2022-10-23T00:06:11;18.67;;;7.82;;
69989;SDS011;57331;52.054;5.294;2022-10-23T00:08:39;15.85;;;8.70;;
69989;SDS011;57331;52.054;5.294;2022-10-23T00:11:07;20.23;;;9.43;;
69989;SDS011;57331;52.054;5.294;2022-10-23T00:13:34;17.95;;;9.02;;
69989;SDS011;57331;52.054;5.294;2022-10-23T00:16:02;18.40;;;9.15;;
69989;SDS011;57331;52.054;5.294;2022-10-23T00:18:29;19.23;;;8.30;;
69989;SDS011;57331;52.054;5.294;2022-10-23T00:20:56;21.15;;;9.40;;
69989;SDS011;57331;52.054;5.294;2022-10-23T00:23:24;15.43;;;7.77;;
69989;SDS011;57331;52.054;5.294;2022-10-23T00:25:51;22.00;;;8.80;;
69989;SDS011;57331;52.054;5.294;2022-10-23T00:28:18;18.40;;;9.98;;
69989;SDS011;57331;52.054;5.294;2022-10-23T00:30:45;18.25;;;8.85;;
69989;SDS011;57331;52.054;5.294;2022-10-23T00:33:14;17.92;;;8.18;;
69989;SDS011;57331;52.054;5.294;2022-10-23T00:35:41;18.57;;;9.60;;
69989;SDS011;57331;52.054;5.294;2022-10-23T00:38:09;21.92;;;9.75;;
69989;SDS011;57331;52.054;5.294;2022-10-23T00:40:38;21.23;;;10.15;;
69989;SDS011;57331;52.054;5.294;2022-10-23T00:43:12;21.63;;;9.73;;
69989;SDS011;57331;52.054;5.294;2022-10-23T00:45:50;17.85;;;8.70;;
69989;SDS011;57331;52.054;5.294;2022-10-23T00:48:17;20.77;;;9.60;;
69989;SDS011;57331;52.054;5.294;2022-10-23T00:50:45;20.40;;;9.18;;
69989;SDS011;57331;52.054;5.294;2022-10-23T00:53:13;20.20;;;9.65;;
69989;SDS011;57331;52.054;5.294;2022-10-23T00:55:42;18.60;;;9.05;;
69989;SDS011;57331;52.054;5.294;2022-10-23T00:58:12;22.23;;;9.02;;
69989;SDS011;57331;52.054;5.294;2022-10-23T01:03:09;15.10;;;7.88;;
69989;SDS011;57331;52.054;5.294;2022-10-23T01:05:59;24.92;;;8.93;;
69989;SDS011;57331;52.054;5.294;2022-10-23T01:11:28;23.42;;;9.50;;
69989;SDS011;57331;52.054;5.294;2022-10-23T01:19:50;16.95;;;8.48;;
69989;SDS011;57331;52.054;5.294;2022-10-23T01:28:40;20.50;;;10.03;;
69989;SDS011;57331;52.054;5.294;2022-10-23T01:31:15;21.60;;;9.25;;
69989;SDS011;57331;52.054;5.294;2022-10-23T01:33:46;19.90;;;9.05;;
69989;SDS011;57331;52.054;5.294;2022-10-23T01:36:24;18.15;;;8.40;;
69989;SDS011;57331;52.054;5.294;2022-10-23T01:39:00;20.30;;;9.18;;
69989;SDS011;57331;52.054;5.294;2022-10-23T01:44:05;14.82;;;8.73;;
69989;SDS011;57331;52.054;5.294;2022-10-23T01:46:39;15.02;;;8.05;;
69989;SDS011;57331;52.054;5.294;2022-10-23T01:49:10;20.42;;;9.80;;
69989;SDS011;57331;52.054;5.294;2022-10-23T01:51:40;18.48;;;8.98;;
69989;SDS011;57331;52.054;5.294;2022-10-23T01:54:12;17.23;;;9.77;;
69989;SDS011;57331;52.054;5.294;2022-10-23T01:56:43;19.88;;;8.38;;
69989;SDS011;57331;52.054;5.294;2022-10-23T01:59:18;18.52;;;8.38;;
69989;SDS011;57331;52.054;5.294;2022-10-23T02:01:48;20.35;;;8.93;;
69989;SDS011;57331;52.054;5.294;2022-10-23T02:04:20;16.42;;;9.07;;
69989;SDS011;57331;52.054;5.294;2022-10-23T02:06:53;16.83;;;8.60;;
69989;SDS011;57331;52.054;5.294;2022-10-23T02:09:20;20.80;;;9.60;;
69989;SDS011;57331;52.054;5.294;2022-10-23T02:11:56;17.90;;;9.05;;
69989;SDS011;57331;52.054;5.294;2022-10-23T02:14:45;19.15;;;9.02;;
69989;SDS011;57331;52.054;5.294;2022-10-23T02:17:30;18.67;;;9.70;;
69989;SDS011;57331;52.054;5.294;2022-10-23T02:20:16;18.83;;;8.50;;
69989;SDS011;57331;52.054;5.294;2022-10-23T02:25:55;16.48;;;7.88;;
69989;SDS011;57331;52.054;5.294;2022-10-23T02:28:33;21.67;;;9.40;;
69989;SDS011;57331;52.054;5.294;2022-10-23T02:31:12;25.85;;;9.80;;
69989;SDS011;57331;52.054;5.294;2022-10-23T02:33:41;17.53;;;9.13;;
69989;SDS011;57331;52.054;5.294;2022-10-23T02:36:10;21.23;;;9.15;;
69989;SDS011;57331;52.054;5.294;2022-10-23T02:38:39;17.40;;;9.50;;
69989;SDS011;57331;52.054;5.294;2022-10-23T02:46:49;20.77;;;9.67;;
69989;SDS011;57331;52.054;5.294;2022-10-23T02:54:59;19.90;;;8.40;;
69989;SDS011;57331;52.054;5.294;2022-10-23T02:57:51;19.75;;;9.75;;
69989;SDS011;57331;52.054;5.294;2022-10-23T03:00:43;18.33;;;8.90;;
69989;SDS011;57331;52.054;5.294;2022-10-23T03:03:23;22.88;;;9.80;;
69989;SDS011;57331;52.054;5.294;2022-10-23T03:05:55;17.90;;;8.43;;
69989;SDS011;57331;52.054;5.294;2022-10-23T03:08:23;17.80;;;8.45;;
69989;SDS011;57331;52.054;5.294;2022-10-23T03:10:50;21.48;;;8.52;;
69989;SDS011;57331;52.054;5.294;2022-10-23T03:13:19;27.37;;;9.43;;
69989;SDS011;57331;52.054;5.294;2022-10-23T03:15:46;21.63;;;9.25;;
69989;SDS011;57331;52.054;5.294;2022-10-23T03:18:14;20.48;;;8.60;;
69989;SDS011;57331;52.054;5.294;2022-10-23T03:20:45;21.98;;;8.90;;
69989;SDS011;57331;52.054;5.294;2022-10-23T03:23:13;19.27;;;9.32;;
69989;SDS011;57331;52.054;5.294;2022-10-23T03:25:41;19.73;;;8.47;;
69989;SDS011;57331;52.054;5.294;2022-10-23T03:28:20;18.45;;;9.10;;
69989;SDS011;57331;52.054;5.294;2022-10-23T03:30:47;22.75;;;9.18;;
69989;SDS011;57331;52.054;5.294;2022-10-23T03:33:14;18.58;;;8.70;;
69989;SDS011;57331;52.054;5.294;2022-10-23T03:35:41;19.13;;;8.52;;
69989;SDS011;57331;52.054;5.294;2022-10-23T03:38:13;19.80;;;8.63;;
69989;SDS011;57331;52.054;5.294;2022-10-23T03:40:41;14.55;;;8.85;;
69989;SDS011;57331;52.054;5.294;2022-10-23T03:43:10;17.73;;;8.82;;
69989;SDS011;57331;52.054;5.294;2022-10-23T03:45:38;16.30;;;8.82;;
69989;SDS011;57331;52.054;5.294;2022-10-23T03:48:05;17.77;;;9.15;;
69989;SDS011;57331;52.054;5.294;2022-10-23T03:50:34;17.93;;;8.10;;
69989;SDS011;57331;52.054;5.294;2022-10-23T03:53:01;18.33;;;7.90;;
69989;SDS011;57331;52.054;5.294;2022-10-23T03:55:28;19.27;;;9.30;;
69989;SDS011;57331;52.054;5.294;2022-10-23T03:57:55;23.40;;;8.50;;
69989;SDS011;57331;52.054;5.294;2022-10-23T04:00:22;15.98;;;8.25;;
69989;SDS011;57331;52.054;5.294;2022-10-23T04:02:50;15.13;;;7.63;;
69989;SDS011;57331;52.054;5.294;2022-10-23T04:05:16;16.45;;;7.57;;
69989;SDS011;57331;52.054;5.294;2022-10-23T04:07:52;18.05;;;7.53;;
69989;SDS011;57331;52.054;5.294;2022-10-23T04:10:19;17.27;;;7.30;;
69989;SDS011;57331;52.054;5.294;2022-10-23T04:12:47;16.45;;;6.50;;
69989;SDS011;57331;52.054;5.294;2022-10-23T04:15:14;20.67;;;9.00;;
69989;SDS011;57331;52.054;5.294;2022-10-23T04:17:44;20.40;;;8.38;;
69989;SDS011;57331;52.054;5.294;2022-10-23T04:20:11;20.08;;;7.07;;
69989;SDS011;57331;52.054;5.294;2022-10-23T04:22:38;14.52;;;6.93;;
69989;SDS011;57331;52.054;5.294;2022-10-23T04:25:05;14.85;;;7.82;;
69989;SDS011;57331;52.054;5.294;2022-10-23T04:27:33;15.53;;;7.57;;
69989;SDS011;57331;52.054;5.294;2022-10-23T04:30:00;16.20;;;7.90;;
69989;SDS011;57331;52.054;5.294;2022-10-23T04:32:28;16.48;;;7.25;;
69989;SDS011;57331;52.054;5.294;2022-10-23T04:34:56;16.67;;;7.30;;
69989;SDS011;57331;52.054;5.294;2022-10-23T04:37:24;19.42;;;6.75;;
69989;SDS011;57331;52.054;5.294;2022-10-23T04:39:51;18.93;;;7.80;;
69989;SDS011;57331;52.054;5.294;2022-10-23T04:42:18;12.98;;;6.35;;
69989;SDS011;57331;52.054;5.294;2022-10-23T04:44:46;15.05;;;6.72;;
69989;SDS011;57331;52.054;5.294;2022-10-23T04:47:13;17.83;;;6.53;;
69989;SDS011;57331;52.054;5.294;2022-10-23T04:49:57;12.52;;;6.25;;
69989;SDS011;57331;52.054;5.294;2022-10-23T04:52:54;14.47;;;6.23;;
69989;SDS011;57331;52.054;5.294;2022-10-23T04:55:47;17.13;;;6.05;;
69989;SDS011;57331;52.054;5.294;2022-10-23T04:58:34;17.23;;;6.28;;
69989;SDS011;57331;52.054;5.294;2022-10-23T05:01:02;16.80;;;6.43;;
69989;SDS011;57331;52.054;5.294;2022-10-23T05:03:29;15.13;;;6.90;;
69989;SDS011;57331;52.054;5.294;2022-10-23T05:05:57;12.47;;;6.43;;
69989;SDS011;57331;52.054;5.294;2022-10-23T05:08:38;20.00;;;6.15;;
69989;SDS011;57331;52.054;5.294;2022-10-23T05:11:26;15.63;;;5.65;;
69989;SDS011;57331;52.054;5.294;2022-10-23T05:13:53;14.18;;;5.95;;
69989;SDS011;57331;52.054;5.294;2022-10-23T05:16:28;14.27;;;6.05;;
69989;SDS011;57331;52.054;5.294;2022-10-23T05:19:02;13.77;;;5.37;;
69989;SDS011;57331;52.054;5.294;2022-10-23T05:21:29;15.93;;;5.75;;
69989;SDS011;57331;52.054;5.294;2022-10-23T05:24:01;13.30;;;5.72;;
69989;SDS011;57331;52.054;5.294;2022-10-23T05:26:29;15.20;;;5.45;;
69989;SDS011;57331;52.054;5.294;2022-10-23T05:29:02;15.40;;;5.32;;
69989;SDS011;57331;52.054;5.294;2022-10-23T05:31:29;14.10;;;4.93;;
69989;SDS011;57331;52.054;5.294;2022-10-23T05:34:03;16.33;;;5.32;;
69989;SDS011;57331;52.054;5.294;2022-10-23T05:36:39;13.00;;;4.90;;
69989;SDS011;57331;52.054;5.294;2022-10-23T05:39:06;12.30;;;3.92;;
69989;SDS011;57331;52.054;5.294;2022-10-23T05:41:34;12.90;;;4.97;;
69989;SDS011;57331;52.054;5.294;2022-10-23T05:44:01;11.57;;;5.30;;
69989;SDS011;57331;52.054;5.294;2022-10-23T05:46:47;9.80;;;4.70;;
69989;SDS011;57331;52.054;5.294;2022-10-23T05:49:26;13.10;;;5.10;;
69989;SDS011;57331;52.054;5.294;2022-10-23T05:52:11;10.95;;;4.60;;
69989;SDS011;57331;52.054;5.294;2022-10-23T05:54:50;12.65;;;5.05;;
69989;SDS011;57331;52.054;5.294;2022-10-23T05:57:52;10.63;;;5.00;;
69989;SDS011;57331;52.054;5.294;2022-10-23T06:00:32;17.02;;;4.90;;
69989;SDS011;57331;52.054;5.294;2022-10-23T06:03:19;13.70;;;4.95;;
69989;SDS011;57331;52.054;5.294;2022-10-23T06:05:50;13.73;;;5.18;;
69989;SDS011;57331;52.054;5.294;2022-10-23T06:08:22;14.80;;;4.72;;
69989;SDS011;57331;52.054;5.294;2022-10-23T06:10:50;9.57;;;4.70;;
69989;SDS011;57331;52.054;5.294;2022-10-23T06:13:18;11.50;;;4.78;;
69989;SDS011;57331;52.054;5.294;2022-10-23T06:15:45;10.02;;;4.80;;
69989;SDS011;57331;52.054;5.294;2022-10-23T06:18:23;29.17;;;11.40;;
69989;SDS011;57331;52.054;5.294;2022-10-23T06:20:59;18.25;;;6.35;;
69989;SDS011;57331;52.054;5.294;2022-10-23T06:23:29;19.80;;;7.00;;
69989;SDS011;57331;52.054;5.294;2022-10-23T06:26:18;11.70;;;5.15;;
69989;SDS011;57331;52.054;5.294;2022-10-23T06:28:56;14.68;;;5.68;;
69989;SDS011;57331;52.054;5.294;2022-10-23T06:31:24;16.70;;;5.70;;
69989;SDS011;57331;52.054;5.294;2022-10-23T06:33:56;15.90;;;6.18;;
69989;SDS011;57331;52.054;5.294;2022-10-23T06:36:24;15.63;;;5.30;;
69989;SDS011;57331;52.054;5.294;2022-10-23T06:38:58;16.73;;;5.88;;
69989;SDS011;57331;52.054;5.294;2022-10-23T06:41:48;23.40;;;5.82;;
69989;SDS011;57331;52.054;5.294;2022-10-23T06:44:36;12.55;;;5.35;;
69989;SDS011;57331;52.054;5.294;2022-10-23T06:47:07;20.00;;;5.40;;
69989;SDS011;57331;52.054;5.294;2022-10-23T06:50:05;14.87;;;5.40;;
69989;SDS011;57331;52.054;5.294;2022-10-23T06:52:40;15.43;;;5.78;;
69989;SDS011;57331;52.054;5.294;2022-10-23T06:55:14;12.95;;;6.35;;
69989;SDS011;57331;52.054;5.294;2022-10-23T06:57:42;15.05;;;5.40;;
69989;SDS011;57331;52.054;5.294;2022-10-23T07:00:09;14.32;;;6.47;;
69989;SDS011;57331;52.054;5.294;2022-10-23T07:02:48;10.40;;;5.23;;
69989;SDS011;57331;52.054;5.294;2022-10-23T07:05:15;13.10;;;5.80;;
69989;SDS011;57331;52.054;5.294;2022-10-23T07:07:43;12.57;;;5.70;;
69989;SDS011;57331;52.054;5.294;2022-10-23T07:10:14;13.93;;;5.45;;
69989;SDS011;57331;52.054;5.294;2022-10-23T07:12:49;14.82;;;5.45;;
69989;SDS011;57331;52.054;5.294;2022-10-23T07:15:35;15.40;;;5.20;;
69989;SDS011;57331;52.054;5.294;2022-10-23T07:18:05;14.48;;;5.05;;
69989;SDS011;57331;52.054;5.294;2022-10-23T07:20:58;12.05;;;5.40;;
69989;SDS011;57331;52.054;5.294;2022-10-23T07:23:27;12.25;;;5.47;;
69989;SDS011;57331;52.054;5.294;2022-10-23T07:25:54;13.63;;;5.50;;
69989;SDS011;57331;52.054;5.294;2022-10-23T07:28:22;16.07;;;5.90;;
69989;SDS011;57331;52.054;5.294;2022-10-23T07:30:57;17.27;;;5.65;;
69989;SDS011;57331;52.054;5.294;2022-10-23T07:33:36;15.77;;;5.20;;
69989;SDS011;57331;52.054;5.294;2022-10-23T07:36:12;14.27;;;5.38;;
69989;SDS011;57331;52.054;5.294;2022-10-23T07:38:39;16.98;;;5.40;;
69989;SDS011;57331;52.054;5.294;2022-10-23T07:41:07;17.77;;;6.83;;
69989;SDS011;57331;52.054;5.294;2022-10-23T07:43:38;11.48;;;5.20;;
69989;SDS011;57331;52.054;5.294;2022-10-23T07:46:05;12.98;;;4.85;;
69989;SDS011;57331;52.054;5.294;2022-10-23T07:48:37;13.50;;;5.03;;
69989;SDS011;57331;52.054;5.294;2022-10-23T07:51:07;16.90;;;4.88;;
69989;SDS011;57331;52.054;5.294;2022-10-23T07:53:43;10.03;;;4.73;;
69989;SDS011;57331;52.054;5.294;2022-10-23T07:56:30;11.65;;;4.72;;
69989;SDS011;57331;52.054;5.294;2022-10-23T07:59:15;10.93;;;5.07;;
69989;SDS011;57331;52.054;5.294;2022-10-23T08:01:48;13.00;;;4.95;;
69989;SDS011;57331;52.054;5.294;2022-10-23T08:04:22;11.45;;;4.63;;
69989;SDS011;57331;52.054;5.294;2022-10-23T08:06:56;12.50;;;4.90;;
69989;SDS011;57331;52.054;5.294;2022-10-23T08:09:24;10.88;;;5.05;;
69989;SDS011;57331;52.054;5.294;2022-10-23T08:11:52;12.55;;;5.40;;
69989;SDS011;57331;52.054;5.294;2022-10-23T08:14:21;13.65;;;4.80;;
69989;SDS011;57331;52.054;5.294;2022-10-23T08:16:48;12.52;;;4.57;;
69989;SDS011;57331;52.054;5.294;2022-10-23T08:19:15;15.20;;;4.87;;
69989;SDS011;57331;52.054;5.294;2022-10-23T08:21:44;11.43;;;5.32;;
69989;SDS011;57331;52.054;5.294;2022-10-23T08:24:12;11.60;;;5.03;;
69989;SDS011;57331;52.054;5.294;2022-10-23T08:26:42;10.27;;;4.93;;
69989;SDS011;57331;52.054;5.294;2022-10-23T08:29:11;10.90;;;5.07;;
69989;SDS011;57331;52.054;5.294;2022-10-23T08:31:38;11.87;;;4.83;;
69989;SDS011;57331;52.054;5.294;2022-10-23T08:34:22;11.20;;;4.85;;
69989;SDS011;57331;52.054;5.294;2022-10-23T08:36:51;10.45;;;4.82;;
69989;SDS011;57331;52.054;5.294;2022-10-23T08:39:18;11.05;;;4.40;;
69989;SDS011;57331;52.054;5.294;2022-10-23T08:42:05;12.50;;;4.38;;
69989;SDS011;57331;52.054;5.294;2022-10-23T08:44:45;12.67;;;4.10;;
69989;SDS011;57331;52.054;5.294;2022-10-23T08:47:22;10.38;;;3.97;;
69989;SDS011;57331;52.054;5.294;2022-10-23T08:50:02;11.32;;;4.47;;
69989;SDS011;57331;52.054;5.294;2022-10-23T08:57:40;10.53;;;4.30;;
69989;SDS011;57331;52.054;5.294;2022-10-23T09:00:29;8.75;;;4.18;;
69989;SDS011;57331;52.054;5.294;2022-10-23T09:02:59;12.52;;;4.55;;
69989;SDS011;57331;52.054;5.294;2022-10-23T09:05:36;11.32;;;4.40;;
69989;SDS011;57331;52.054;5.294;2022-10-23T09:08:38;8.82;;;3.90;;
69989;SDS011;57331;52.054;5.294;2022-10-23T09:11:41;11.43;;;3.83;;
69989;SDS011;57331;52.054;5.294;2022-10-23T09:14:23;8.98;;;4.00;;
69989;SDS011;57331;52.054;5.294;2022-10-23T09:17:26;7.93;;;3.85;;
69989;SDS011;57331;52.054;5.294;2022-10-23T09:22:31;10.75;;;4.15;;
69989;SDS011;57331;52.054;5.294;2022-10-23T09:24:58;12.13;;;3.50;;
69989;SDS011;57331;52.054;5.294;2022-10-23T09:27:25;13.18;;;4.20;;
69989;SDS011;57331;52.054;5.294;2022-10-23T09:29:53;9.05;;;4.28;;
69989;SDS011;57331;52.054;5.294;2022-10-23T09:32:34;7.60;;;4.18;;
69989;SDS011;57331;52.054;5.294;2022-10-23T09:35:03;11.57;;;3.97;;
69989;SDS011;57331;52.054;5.294;2022-10-23T09:37:31;13.23;;;4.28;;
69989;SDS011;57331;52.054;5.294;2022-10-23T09:42:37;10.52;;;4.00;;
69989;SDS011;57331;52.054;5.294;2022-10-23T09:45:19;11.52;;;4.13;;
69989;SDS011;57331;52.054;5.294;2022-10-23T09:48:02;9.10;;;3.92;;
69989;SDS011;57331;52.054;5.294;2022-10-23T09:50:50;8.57;;;3.80;;
69989;SDS011;57331;52.054;5.294;2022-10-23T09:53:22;12.00;;;4.18;;
69989;SDS011;57331;52.054;5.294;2022-10-23T09:56:06;8.55;;;4.10;;
69989;SDS011;57331;52.054;5.294;2022-10-23T10:01:46;11.88;;;4.70;;
69989;SDS011;57331;52.054;5.294;2022-10-23T10:04:35;11.77;;;4.20;;
69989;SDS011;57331;52.054;5.294;2022-10-23T10:09:51;11.80;;;4.63;;
69989;SDS011;57331;52.054;5.294;2022-10-23T10:15:09;9.50;;;4.40;;
69989;SDS011;57331;52.054;5.294;2022-10-23T10:23:17;9.27;;;3.70;;
69989;SDS011;57331;52.054;5.294;2022-10-23T10:34:28;11.48;;;3.42;;
69989;SDS011;57331;52.054;5.294;2022-10-23T10:37:04;7.90;;;3.47;;
69989;SDS011;57331;52.054;5.294;2022-10-23T10:40:15;9.38;;;3.25;;
69989;SDS011;57331;52.054;5.294;2022-10-23T10:42:51;10.50;;;3.60;;
69989;SDS011;57331;52.054;5.294;2022-10-23T10:48:47;9.48;;;3.17;;
69989;SDS011;57331;52.054;5.294;2022-10-23T10:51:50;9.15;;;3.83;;
69989;SDS011;57331;52.054;5.294;2022-10-23T10:56:55;7.45;;;2.90;;
69989;SDS011;57331;52.054;5.294;2022-10-23T10:59:30;7.82;;;2.95;;
69989;SDS011;57331;52.054;5.294;2022-10-23T11:02:10;16.42;;;5.13;;
69989;SDS011;57331;52.054;5.294;2022-10-23T11:07:59;7.72;;;2.80;;
69989;SDS011;57331;52.054;5.294;2022-10-23T11:10:32;9.15;;;3.30;;
69989;SDS011;57331;52.054;5.294;2022-10-23T11:13:04;8.27;;;2.97;;
69989;SDS011;57331;52.054;5.294;2022-10-23T11:15:37;10.95;;;3.15;;
69989;SDS011;57331;52.054;5.294;2022-10-23T11:18:11;7.07;;;2.80;;
69989;SDS011;57331;52.054;5.294;2022-10-23T11:20:49;8.60;;;2.88;;
69989;SDS011;57331;52.054;5.294;2022-10-23T11:29:13;9.07;;;2.70;;
69989;SDS011;57331;52.054;5.294;2022-10-23T11:37:41;6.93;;;2.83;;
69989;SDS011;57331;52.054;5.294;2022-10-23T11:47:57;8.50;;;3.05;;
69989;SDS011;57331;52.054;5.294;2022-10-23T11:56:02;8.75;;;3.45;;
69989;SDS011;57331;52.054;5.294;2022-10-23T12:03:51;11.68;;;3.28;;
69989;SDS011;57331;52.054;5.294;2022-10-23T12:06:25;8.65;;;3.03;;
69989;SDS011;57331;52.054;5.294;2022-10-23T12:08:56;7.28;;;2.90;;
69989;SDS011;57331;52.054;5.294;2022-10-23T12:11:27;9.13;;;3.00;;
69989;SDS011;57331;52.054;5.294;2022-10-23T12:16:58;8.50;;;2.83;;
69989;SDS011;57331;52.054;5.294;2022-10-23T12:19:26;7.63;;;3.00;;
69989;SDS011;57331;52.054;5.294;2022-10-23T12:21:59;9.27;;;2.85;;
69989;SDS011;57331;52.054;5.294;2022-10-23T12:27:03;7.47;;;4.18;;
69989;SDS011;57331;52.054;5.294;2022-10-23T12:32:24;8.43;;;3.40;;
69989;SDS011;57331;52.054;5.294;2022-10-23T12:37:40;7.22;;;2.75;;
69989;SDS011;57331;52.054;5.294;2022-10-23T12:40:31;8.77;;;3.33;;
69989;SDS011;57331;52.054;5.294;2022-10-23T12:42:59;10.40;;;3.78;;
69989;SDS011;57331;52.054;5.294;2022-10-23T12:47:53;8.95;;;2.67;;
69989;SDS011;57331;52.054;5.294;2022-10-23T12:50:22;10.98;;;2.72;;
69989;SDS011;57331;52.054;5.294;2022-10-23T12:55:23;10.98;;;2.85;;
69989;SDS011;57331;52.054;5.294;2022-10-23T12:57:56;7.32;;;2.75;;
69989;SDS011;57331;52.054;5.294;2022-10-23T13:00:23;6.93;;;2.70;;
69989;SDS011;57331;52.054;5.294;2022-10-23T13:03:00;10.32;;;3.78;;
69989;SDS011;57331;52.054;5.294;2022-10-23T13:05:29;11.27;;;2.83;;
69989;SDS011;57331;52.054;5.294;2022-10-23T13:07:58;8.45;;;3.03;;
69989;SDS011;57331;52.054;5.294;2022-10-23T13:10:39;8.93;;;2.85;;
69989;SDS011;57331;52.054;5.294;2022-10-23T13:13:09;7.82;;;3.25;;
69989;SDS011;57331;52.054;5.294;2022-10-23T13:15:39;9.00;;;3.58;;
69989;SDS011;57331;52.054;5.294;2022-10-23T13:18:09;14.70;;;3.30;;
69989;SDS011;57331;52.054;5.294;2022-10-23T13:20:57;8.40;;;2.70;;
69989;SDS011;57331;52.054;5.294;2022-10-23T13:23:29;7.97;;;2.85;;
69989;SDS011;57331;52.054;5.294;2022-10-23T13:26:01;11.63;;;3.20;;
69989;SDS011;57331;52.054;5.294;2022-10-23T13:28:46;9.35;;;3.97;;
69989;SDS011;57331;52.054;5.294;2022-10-23T13:33:45;10.65;;;3.65;;
69989;SDS011;57331;52.054;5.294;2022-10-23T13:39:01;11.68;;;3.47;;
69989;SDS011;57331;52.054;5.294;2022-10-23T13:41:29;11.93;;;3.90;;
69989;SDS011;57331;52.054;5.294;2022-10-23T13:44:04;7.22;;;3.25;;
69989;SDS011;57331;52.054;5.294;2022-10-23T13:46:31;10.32;;;3.60;;
69989;SDS011;57331;52.054;5.294;2022-10-23T13:48:59;13.45;;;3.38;;
69989;SDS011;57331;52.054;5.294;2022-10-23T13:51:26;9.73;;;3.13;;
69989;SDS011;57331;52.054;5.294;2022-10-23T13:53:55;9.88;;;2.97;;
69989;SDS011;57331;52.054;5.294;2022-10-23T13:56:23;7.60;;;2.85;;
69989;SDS011;57331;52.054;5.294;2022-10-23T13:58:52;7.80;;;3.45;;
69989;SDS011;57331;52.054;5.294;2022-10-23T14:01:21;11.63;;;3.17;;
69989;SDS011;57331;52.054;5.294;2022-10-23T14:03:53;9.65;;;3.90;;
69989;SDS011;57331;52.054;5.294;2022-10-23T14:06:21;8.27;;;3.50;;
69989;SDS011;57331;52.054;5.294;2022-10-23T14:08:48;8.10;;;3.10;;
69989;SDS011;57331;52.054;5.294;2022-10-23T14:11:16;6.30;;;3.17;;
69989;SDS011;57331;52.054;5.294;2022-10-23T14:13:44;9.60;;;3.30;;
69989;SDS011;57331;52.054;5.294;2022-10-23T14:16:12;8.38;;;3.10;;
69989;SDS011;57331;52.054;5.294;2022-10-23T14:18:40;10.18;;;3.42;;
69989;SDS011;57331;52.054;5.294;2022-10-23T14:21:09;9.85;;;3.33;;
69989;SDS011;57331;52.054;5.294;2022-10-23T14:23:37;12.65;;;3.85;;
69989;SDS011;57331;52.054;5.294;2022-10-23T14:26:05;7.30;;;3.55;;
69989;SDS011;57331;52.054;5.294;2022-10-23T14:28:34;13.25;;;3.60;;
69989;SDS011;57331;52.054;5.294;2022-10-23T14:31:05;9.45;;;3.17;;
69989;SDS011;57331;52.054;5.294;2022-10-23T14:33:33;6.72;;;2.75;;
69989;SDS011;57331;52.054;5.294;2022-10-23T14:36:00;8.20;;;3.45;;
69989;SDS011;57331;52.054;5.294;2022-10-23T14:38:28;10.80;;;3.10;;
69989;SDS011;57331;52.054;5.294;2022-10-23T14:40:55;8.20;;;3.30;;
69989;SDS011;57331;52.054;5.294;2022-10-23T14:43:22;10.05;;;3.70;;
69989;SDS011;57331;52.054;5.294;2022-10-23T14:45:50;7.88;;;3.53;;
69989;SDS011;57331;52.054;5.294;2022-10-23T14:48:17;7.53;;;3.50;;
69989;SDS011;57331;52.054;5.294;2022-10-23T14:50:45;9.90;;;3.15;;
69989;SDS011;57331;52.054;5.294;2022-10-23T14:53:13;12.55;;;3.72;;
69989;SDS011;57331;52.054;5.294;2022-10-23T14:55:40;7.35;;;3.33;;
69989;SDS011;57331;52.054;5.294;2022-10-23T14:58:08;8.82;;;3.90;;
69989;SDS011;57331;52.054;5.294;2022-10-23T15:00:35;13.27;;;3.58;;
69989;SDS011;57331;52.054;5.294;2022-10-23T15:03:02;11.60;;;3.63;;
69989;SDS011;57331;52.054;5.294;2022-10-23T15:05:29;16.92;;;4.50;;
69989;SDS011;57331;52.054;5.294;2022-10-23T15:07:56;12.00;;;3.35;;
69989;SDS011;57331;52.054;5.294;2022-10-23T15:10:24;6.70;;;2.92;;
69989;SDS011;57331;52.054;5.294;2022-10-23T15:12:51;7.32;;;2.90;;
69989;SDS011;57331;52.054;5.294;2022-10-23T15:15:18;10.18;;;3.92;;
69989;SDS011;57331;52.054;5.294;2022-10-23T15:17:47;10.60;;;3.60;;
69989;SDS011;57331;52.054;5.294;2022-10-23T15:20:14;10.15;;;3.90;;
69989;SDS011;57331;52.054;5.294;2022-10-23T15:22:42;11.60;;;2.97;;
69989;SDS011;57331;52.054;5.294;2022-10-23T15:25:09;15.15;;;3.38;;
69989;SDS011;57331;52.054;5.294;2022-10-23T15:27:43;12.18;;;3.55;;
69989;SDS011;57331;52.054;5.294;2022-10-23T15:30:11;13.00;;;4.13;;
69989;SDS011;57331;52.054;5.294;2022-10-23T15:32:38;10.25;;;3.28;;
69989;SDS011;57331;52.054;5.294;2022-10-23T15:35:05;10.00;;;3.10;;
69989;SDS011;57331;52.054;5.294;2022-10-23T15:37:33;8.25;;;3.35;;
69989;SDS011;57331;52.054;5.294;2022-10-23T15:40:00;8.18;;;3.30;;
69989;SDS011;57331;52.054;5.294;2022-10-23T15:42:28;7.50;;;3.22;;
69989;SDS011;57331;52.054;5.294;2022-10-23T15:44:55;8.27;;;3.60;;
69989;SDS011;57331;52.054;5.294;2022-10-23T15:47:22;7.97;;;3.22;;
69989;SDS011;57331;52.054;5.294;2022-10-23T15:49:49;7.20;;;2.97;;
69989;SDS011;57331;52.054;5.294;2022-10-23T15:52:16;7.88;;;3.30;;
69989;SDS011;57331;52.054;5.294;2022-10-23T15:54:43;11.25;;;3.38;;
69989;SDS011;57331;52.054;5.294;2022-10-23T15:57:10;15.38;;;5.63;;
69989;SDS011;57331;52.054;5.294;2022-10-23T15:59:38;10.90;;;3.50;;
69989;SDS011;57331;52.054;5.294;2022-10-23T16:02:05;14.18;;;4.05;;
69989;SDS011;57331;52.054;5.294;2022-10-23T16:04:32;8.10;;;4.30;;
69989;SDS011;57331;52.054;5.294;2022-10-23T16:07:00;9.07;;;3.70;;
69989;SDS011;57331;52.054;5.294;2022-10-23T16:09:27;10.52;;;3.10;;
69989;SDS011;57331;52.054;5.294;2022-10-23T16:11:55;8.13;;;3.75;;
69989;SDS011;57331;52.054;5.294;2022-10-23T16:14:22;9.50;;;3.95;;
69989;SDS011;57331;52.054;5.294;2022-10-23T16:16:49;9.50;;;3.47;;
69989;SDS011;57331;52.054;5.294;2022-10-23T16:19:15;7.55;;;3.10;;
69989;SDS011;57331;52.054;5.294;2022-10-23T16:21:43;8.82;;;3.33;;
69989;SDS011;57331;52.054;5.294;2022-10-23T16:24:11;8.75;;;3.28;;
69989;SDS011;57331;52.054;5.294;2022-10-23T16:26:38;7.13;;;3.40;;
69989;SDS011;57331;52.054;5.294;2022-10-23T16:29:06;7.43;;;3.47;;
69989;SDS011;57331;52.054;5.294;2022-10-23T16:31:34;7.45;;;3.65;;
69989;SDS011;57331;52.054;5.294;2022-10-23T16:34:02;9.63;;;3.50;;
69989;SDS011;57331;52.054;5.294;2022-10-23T16:36:30;11.30;;;4.57;;
69989;SDS011;57331;52.054;5.294;2022-10-23T16:39:17;10.45;;;4.05;;
69989;SDS011;57331;52.054;5.294;2022-10-23T16:42:03;7.78;;;3.22;;
69989;SDS011;57331;52.054;5.294;2022-10-23T16:44:54;10.02;;;3.70;;
69989;SDS011;57331;52.054;5.294;2022-10-23T16:47:22;13.73;;;3.47;;
69989;SDS011;57331;52.054;5.294;2022-10-23T16:49:49;12.43;;;3.70;;
69989;SDS011;57331;52.054;5.294;2022-10-23T16:52:16;10.43;;;3.80;;
69989;SDS011;57331;52.054;5.294;2022-10-23T16:54:43;9.57;;;4.10;;
69989;SDS011;57331;52.054;5.294;2022-10-23T16:57:11;11.55;;;4.20;;
69989;SDS011;57331;52.054;5.294;2022-10-23T16:59:38;10.43;;;4.40;;
69989;SDS011;57331;52.054;5.294;2022-10-23T17:02:07;11.57;;;4.50;;
69989;SDS011;57331;52.054;5.294;2022-10-23T17:04:36;9.57;;;4.05;;
69989;SDS011;57331;52.054;5.294;2022-10-23T17:07:03;7.00;;;3.58;;
69989;SDS011;57331;52.054;5.294;2022-10-23T17:09:31;15.45;;;4.43;;
69989;SDS011;57331;52.054;5.294;2022-10-23T17:11:58;11.13;;;4.30;;
69989;SDS011;57331;52.054;5.294;2022-10-23T17:14:25;8.75;;;3.90;;
69989;SDS011;57331;52.054;5.294;2022-10-23T17:16:56;13.07;;;4.65;;